createdAt,value
2023-05-24T00:01:01.992Z,94.27
2023-05-24T00:03:32.581Z,94.51
2023-05-24T00:06:03.216Z,94.30
2023-05-24T00:08:34.739Z,94.32
2023-05-24T00:11:05.149Z,94.32
2023-05-24T00:13:35.927Z,94.77
2023-05-24T00:16:06.556Z,95.04
2023-05-24T00:18:37.325Z,94.94
2023-05-24T00:21:08.430Z,94.94
2023-05-24T00:23:39.109Z,95.08
2023-05-24T00:26:10.280Z,95.44
2023-05-24T00:28:41.340Z,95.44
2023-05-24T00:31:11.911Z,95.97
2023-05-24T00:33:42.393Z,95.99
2023-05-24T00:36:13.049Z,96.55
2023-05-24T00:38:43.990Z,96.65
2023-05-24T00:41:14.286Z,96.65
2023-05-24T00:43:44.714Z,97.20
2023-05-24T00:46:18.012Z,97.02
2023-05-24T00:48:50.121Z,97.05
2023-05-24T00:51:20.543Z,97.05
2023-05-24T00:53:51.048Z,96.92
2023-05-24T00:56:22.034Z,97.67
2023-05-24T00:58:52.908Z,97.67
2023-05-24T01:01:24.955Z,97.54
2023-05-24T01:03:55.436Z,97.43
2023-05-24T01:06:27.891Z,97.71
2023-05-24T01:09:19.049Z,97.83
2023-05-24T01:12:12.945Z,97.77
2023-05-24T01:14:46.298Z,97.77
2023-05-24T01:17:25.647Z,97.77
2023-05-24T01:20:07.253Z,98.30
2023-05-24T01:28:34.522Z,99.40
2023-05-24T01:31:05.613Z,98.61
2023-05-24T01:33:37.631Z,98.61
2023-05-24T01:36:08.250Z,98.33
2023-05-24T01:38:40.289Z,98.33
2023-05-24T01:41:28.826Z,98.42
2023-05-24T01:44:11.112Z,98.42
2023-05-24T01:46:41.736Z,99.04
2023-05-24T01:49:22.848Z,99.04
2023-05-24T01:51:58.791Z,98.99
2023-05-24T01:54:32.132Z,98.99
2023-05-24T01:57:05.677Z,99.12
2023-05-24T01:59:38.801Z,99.41
2023-05-24T02:02:09.962Z,99.66
2023-05-24T02:05:01.466Z,99.46
2023-05-24T02:07:34.769Z,99.38
2023-05-24T02:10:14.337Z,99.82
2023-05-24T02:12:51.630Z,99.92
2023-05-24T02:15:22.275Z,99.91
2023-05-24T02:17:56.030Z,99.66
2023-05-24T02:20:26.398Z,99.73
2023-05-24T02:22:57.696Z,99.73
2023-05-24T02:25:33.435Z,99.98
2023-05-24T02:28:03.731Z,99.91
2023-05-24T02:30:34.117Z,99.97
2023-05-24T02:33:04.686Z,99.98
2023-05-24T02:35:43.820Z,99.96
2023-05-24T02:38:14.295Z,100.00
2023-05-24T02:40:44.757Z,100.00
2023-05-24T02:43:15.585Z,100.00
2023-05-24T02:45:45.875Z,100.00
2023-05-24T02:48:16.283Z,100.00
2023-05-24T02:50:46.888Z,100.00
2023-05-24T02:53:17.318Z,100.00
2023-05-24T02:55:47.812Z,100.00
2023-05-24T02:58:18.603Z,100.00
2023-05-24T03:00:48.808Z,100.00
2023-05-24T03:03:19.292Z,99.97
2023-05-24T03:05:49.636Z,99.97
2023-05-24T03:08:21.632Z,99.78
2023-05-24T03:10:51.849Z,99.78
2023-05-24T03:13:22.304Z,98.59
2023-05-24T03:18:53.386Z,98.55
2023-05-24T03:21:23.792Z,98.75
2023-05-24T03:23:54.261Z,98.75
2023-05-24T03:26:24.747Z,98.30
2023-05-24T03:28:56.065Z,98.30
2023-05-24T03:31:26.585Z,98.46
2023-05-24T03:33:57.011Z,98.00
2023-05-24T03:36:28.132Z,98.48
2023-05-24T03:39:00.507Z,98.48
2023-05-24T03:41:31.109Z,98.24
2023-05-24T03:44:02.624Z,97.79
2023-05-24T03:46:33.436Z,97.59
2023-05-24T03:49:05.627Z,97.24
2023-05-24T03:51:36.376Z,97.13
2023-05-24T03:54:09.939Z,97.06
2023-05-24T03:56:40.344Z,96.83
2023-05-24T03:59:13.017Z,96.83
2023-05-24T04:01:43.772Z,97.57
2023-05-24T04:04:14.184Z,97.95
2023-05-24T04:06:44.559Z,97.82
2023-05-24T04:09:15.017Z,97.37
2023-05-24T04:11:45.465Z,96.75
2023-05-24T04:14:15.810Z,97.08
2023-05-24T04:16:46.125Z,97.03
2023-05-24T04:19:16.459Z,97.03
2023-05-24T04:21:53.398Z,96.49
2023-05-24T04:24:24.437Z,96.49
2023-05-24T04:26:55.187Z,95.39
2023-05-24T04:29:26.047Z,95.39
2023-05-24T04:31:56.578Z,95.05
2023-05-24T04:34:28.598Z,95.05
2023-05-24T04:36:59.130Z,95.93
2023-05-24T04:39:31.371Z,95.44
2023-05-24T04:42:03.429Z,93.78
2023-05-24T04:44:36.654Z,92.67
2023-05-24T04:47:07.482Z,92.32
2023-05-24T04:49:39.471Z,93.10
2023-05-24T04:52:09.883Z,92.45
2023-05-24T04:54:40.548Z,91.41
2023-05-24T04:57:16.617Z,91.16
2023-05-24T04:59:47.064Z,90.24
2023-05-24T05:02:17.538Z,90.54
2023-05-24T05:04:48.242Z,90.55
2023-05-24T05:07:19.776Z,89.00
2023-05-24T05:09:50.323Z,89.70
2023-05-24T05:12:29.465Z,89.70
2023-05-24T05:15:00.157Z,88.36
2023-05-24T05:17:30.482Z,88.70
2023-05-24T05:20:02.692Z,87.29
2023-05-24T05:22:33.400Z,86.99
2023-05-24T05:25:04.257Z,85.90
2023-05-24T05:27:34.918Z,85.90
2023-05-24T05:33:06.835Z,82.09
2023-05-24T05:35:54.266Z,83.48
2023-05-24T05:48:30.081Z,82.32
2023-05-24T05:49:05.268Z,80.10
2023-05-24T05:51:00.982Z,81.84
2023-05-24T06:11:34.894Z,80.61
2023-05-24T06:17:04.775Z,79.04
2023-05-24T06:19:49.365Z,78.06
2023-05-24T06:22:22.494Z,78.06
2023-05-24T06:25:01.889Z,74.96
2023-05-24T06:27:37.772Z,75.42
2023-05-24T06:30:11.010Z,74.88
2023-05-24T06:32:43.375Z,74.02
2023-05-24T06:35:14.105Z,74.02
2023-05-24T06:37:48.996Z,71.85
2023-05-24T06:40:21.897Z,71.85
2023-05-24T06:42:59.989Z,71.00
2023-05-24T06:45:39.527Z,69.70
2023-05-24T06:48:16.244Z,69.70
2023-05-24T06:50:47.342Z,66.91
2023-05-24T06:53:23.113Z,66.91
2023-05-24T06:56:05.650Z,66.56
2023-05-24T06:58:34.177Z,66.33
2023-05-24T07:01:09.480Z,66.33
2023-05-24T07:03:47.575Z,64.37
2023-05-24T07:06:30.922Z,62.64
2023-05-24T07:09:05.885Z,58.64
2023-05-24T07:11:39.454Z,58.86
2023-05-24T07:14:11.255Z,60.86
2023-05-24T07:20:24.664Z,59.85
2023-05-24T07:22:38.495Z,55.84
2023-05-24T07:25:13.443Z,53.97
2023-05-24T07:27:46.259Z,53.97
2023-05-24T07:30:32.770Z,52.38
2023-05-24T07:33:14.678Z,42.34
2023-05-24T07:35:47.819Z,46.36
2023-05-24T07:38:24.258Z,46.36
2023-05-24T07:41:06.708Z,47.52
2023-05-24T07:43:42.093Z,47.66
2023-05-24T07:46:18.660Z,48.01
2023-05-24T07:49:01.219Z,48.40
2023-05-24T07:51:32.390Z,46.32
2023-05-24T07:54:10.800Z,45.87
2023-05-24T07:56:46.796Z,45.68
2023-05-24T07:59:20.304Z,45.65
2023-05-24T08:14:24.754Z,43.80
2023-05-24T08:17:11.715Z,42.38
2023-05-24T08:19:45.408Z,38.40
2023-05-24T08:28:05.848Z,34.91
2023-05-24T08:30:47.202Z,36.38
2023-05-24T08:33:20.424Z,38.20
2023-05-24T08:36:02.373Z,36.14
2023-05-24T08:41:27.014Z,36.83
2023-05-24T08:47:11.917Z,33.33
2023-05-24T08:49:45.078Z,33.33
2023-05-24T08:52:20.712Z,34.08
2023-05-24T08:54:59.840Z,35.10
2023-05-24T08:57:36.840Z,34.26
2023-05-24T09:00:10.819Z,34.28
2023-05-24T09:02:43.610Z,33.80
2023-05-24T09:05:15.579Z,36.95
2023-05-24T09:07:48.206Z,34.04
2023-05-24T09:10:52.800Z,35.29
2023-05-24T09:13:14.820Z,37.08
2023-05-24T09:15:45.452Z,34.45
2023-05-24T09:18:17.456Z,34.45
2023-05-24T09:20:48.365Z,36.50
2023-05-24T09:23:32.380Z,37.93
2023-05-24T09:26:13.160Z,38.49
2023-05-24T09:28:43.863Z,38.49
2023-05-24T09:31:16.753Z,38.65
2023-05-24T09:33:48.798Z,40.86
2023-05-24T09:36:19.301Z,40.86
2023-05-24T09:38:50.484Z,40.86
2023-05-24T09:41:24.584Z,40.29
2023-05-24T09:43:54.783Z,39.01
2023-05-24T09:46:25.332Z,39.01
2023-05-24T09:48:59.834Z,38.82
2023-05-24T09:51:30.798Z,38.82
2023-05-24T09:54:05.544Z,35.45
2023-05-24T09:56:36.454Z,33.28
2023-05-24T09:59:08.547Z,35.72
2023-05-24T10:01:39.241Z,34.80
2023-05-24T10:04:10.722Z,32.89
2023-05-24T10:06:42.778Z,32.89
2023-05-24T10:09:13.331Z,35.09
2023-05-24T10:11:46.786Z,35.09
2023-05-24T10:14:17.759Z,36.40
2023-05-24T10:16:52.885Z,35.98
2023-05-24T10:19:23.591Z,35.98
2023-05-24T10:21:58.316Z,34.78
2023-05-24T10:24:31.548Z,34.87
2023-05-24T10:27:13.362Z,37.13
2023-05-24T10:30:16.854Z,36.99
2023-05-24T10:32:49.277Z,39.10
2023-05-24T10:35:24.311Z,38.58
2023-05-24T10:37:55.540Z,38.58
2023-05-24T10:40:26.584Z,40.96
2023-05-24T10:43:01.559Z,41.49
2023-05-24T10:45:42.094Z,45.16
2023-05-24T10:48:18.649Z,47.31
2023-05-24T10:50:52.105Z,47.31
2023-05-24T10:53:25.703Z,46.60
2023-05-24T10:56:01.312Z,48.40
2023-05-24T10:58:46.704Z,48.40
2023-05-24T11:01:33.946Z,50.69
2023-05-24T11:04:18.843Z,50.42
2023-05-24T11:06:56.988Z,50.04
2023-05-24T11:09:28.005Z,46.20
2023-05-24T11:12:09.250Z,47.71
2023-05-24T11:14:41.722Z,48.91
2023-05-24T11:17:12.441Z,48.85
2023-05-24T11:19:52.858Z,48.85
2023-05-24T11:22:27.446Z,52.95
2023-05-24T11:24:58.132Z,54.04
2023-05-24T11:27:29.087Z,54.04
2023-05-24T11:30:01.131Z,53.92
2023-05-24T11:32:34.232Z,55.74
2023-05-24T11:35:05.899Z,59.52
2023-05-24T11:37:46.130Z,58.85
2023-05-24T11:40:11.242Z,51.27
2023-05-24T11:42:42.571Z,51.27
2023-05-24T11:45:15.525Z,49.10
2023-05-24T11:47:50.119Z,49.10
2023-05-24T11:50:28.709Z,50.44
2023-05-24T11:53:04.469Z,54.45
2023-05-24T11:55:40.645Z,56.29
2023-05-24T11:58:29.636Z,56.29
2023-05-24T12:01:00.372Z,57.08
2023-05-24T12:03:31.003Z,59.08
2023-05-24T12:06:03.063Z,60.54
2023-05-24T12:08:36.350Z,64.09
2023-05-24T12:11:14.542Z,64.09
2023-05-24T12:13:50.736Z,57.64
2023-05-24T12:16:21.355Z,57.33
2023-05-24T12:19:05.314Z,53.86
2023-05-24T12:21:33.428Z,46.10
2023-05-24T12:24:15.743Z,48.96
2023-05-24T12:26:53.290Z,49.75
2023-05-24T12:29:28.227Z,49.75
2023-05-24T12:32:08.606Z,56.12
2023-05-24T12:34:44.053Z,54.55
2023-05-24T12:37:20.332Z,54.55
2023-05-24T12:43:13.749Z,51.52
2023-05-24T12:45:43.079Z,51.52
2023-05-24T12:48:16.800Z,50.97
2023-05-24T12:50:49.827Z,56.71
2023-05-24T12:53:23.775Z,55.78
2023-05-24T12:55:57.107Z,57.80
2023-05-24T12:58:30.744Z,61.99
2023-05-24T13:04:16.965Z,60.43
2023-05-24T13:06:52.779Z,58.96
2023-05-24T13:09:23.975Z,58.96
2023-05-24T13:11:57.878Z,59.11
2023-05-24T13:14:28.654Z,57.44
2023-05-24T13:16:59.618Z,57.44
2023-05-24T13:19:30.401Z,57.22
2023-05-24T13:22:01.044Z,54.64
2023-05-24T13:24:32.210Z,55.47
2023-05-24T13:27:03.506Z,55.47
2023-05-24T13:29:45.627Z,54.21
2023-05-24T13:32:06.756Z,54.21
2023-05-24T13:34:40.908Z,53.25
2023-05-24T13:37:13.275Z,53.25
2023-05-24T13:39:44.346Z,53.66
2023-05-24T13:42:18.287Z,46.77
2023-05-24T13:44:49.207Z,44.21
2023-05-24T13:47:38.653Z,44.85
2023-05-24T13:50:01.058Z,44.85
2023-05-24T13:52:31.869Z,47.99
2023-05-24T13:55:04.224Z,46.51
2023-05-24T13:57:51.303Z,45.04
2023-05-24T14:00:18.968Z,45.22
2023-05-24T14:02:53.917Z,45.22
2023-05-24T14:05:30.634Z,47.35
2023-05-24T14:08:27.924Z,47.25
2023-05-24T14:10:55.761Z,51.95
2023-05-24T14:16:16.019Z,54.88
2023-05-24T14:18:56.262Z,54.88
2023-05-24T14:21:28.509Z,56.34
2023-05-24T14:24:02.466Z,55.57
2023-05-24T14:26:33.372Z,52.69
2023-05-24T14:29:04.233Z,52.69
2023-05-24T14:31:37.369Z,52.50
2023-05-24T14:34:11.825Z,51.44
2023-05-24T14:36:44.151Z,51.98
2023-05-24T14:39:22.119Z,55.79
2023-05-24T14:41:53.029Z,55.79
2023-05-24T14:44:23.699Z,55.19
2023-05-24T14:46:57.944Z,56.29
2023-05-24T14:49:28.675Z,58.72
2023-05-24T14:51:59.532Z,59.78
2023-05-24T14:54:30.262Z,61.46
2023-05-24T14:57:01.137Z,60.07
2023-05-24T14:59:33.397Z,60.07
2023-05-24T15:02:05.526Z,59.71
2023-05-24T15:04:38.039Z,59.71
2023-05-24T15:07:11.321Z,62.15
2023-05-24T15:09:42.108Z,62.15
2023-05-24T15:12:12.922Z,61.48
2023-05-24T15:14:44.956Z,61.56
2023-05-24T15:17:23.270Z,64.61
2023-05-24T15:19:57.223Z,62.93
2023-05-24T15:22:31.758Z,61.90
2023-05-24T15:25:03.794Z,60.57
2023-05-24T15:27:37.558Z,60.46
2023-05-24T15:30:11.297Z,62.38
2023-05-24T15:32:44.303Z,62.38
2023-05-24T15:35:17.704Z,63.67
2023-05-24T15:37:49.733Z,64.59
2023-05-24T15:40:24.307Z,63.74
2023-05-24T15:42:59.051Z,64.03
2023-05-24T15:45:43.702Z,64.12
2023-05-24T15:48:05.095Z,63.67
2023-05-24T15:50:59.978Z,63.67
2023-05-24T15:53:23.134Z,63.89
2023-05-24T15:56:02.914Z,63.56
2023-05-24T15:58:44.252Z,64.12
2023-05-24T16:01:16.709Z,65.46
2023-05-24T16:03:49.910Z,65.93
2023-05-24T16:06:23.870Z,65.93
2023-05-24T16:09:01.293Z,66.83
2023-05-24T16:11:36.746Z,67.21
2023-05-24T16:14:25.237Z,69.16
2023-05-24T16:17:02.244Z,70.93
2023-05-24T16:19:34.506Z,70.93
2023-05-24T16:22:32.992Z,70.17
2023-05-24T16:25:04.727Z,68.76
2023-05-24T16:27:35.813Z,67.99
2023-05-24T16:30:09.768Z,68.45
2023-05-24T16:33:02.328Z,68.45
2023-05-24T16:38:36.779Z,68.79
2023-05-24T16:41:15.828Z,68.57
2023-05-24T16:43:51.421Z,72.15
2023-05-24T16:49:24.621Z,75.21
2023-05-24T16:51:59.885Z,85.14
2023-05-24T16:58:04.576Z,91.08
2023-05-24T17:03:32.653Z,93.42
2023-05-24T17:06:08.969Z,94.66
2023-05-24T17:08:41.525Z,94.68
2023-05-24T17:11:15.240Z,98.10
2023-05-24T17:13:50.451Z,98.10
2023-05-24T17:16:25.351Z,97.85
2023-05-24T17:19:00.846Z,99.00
2023-05-24T17:21:34.252Z,99.00
2023-05-24T17:24:09.653Z,99.28
2023-05-24T17:26:36.984Z,99.50
2023-05-24T17:29:08.051Z,99.64
2023-05-24T17:31:42.422Z,99.64
2023-05-24T17:34:14.372Z,97.40
2023-05-24T17:36:46.471Z,99.45
2023-05-24T17:39:19.893Z,96.00
2023-05-24T17:41:53.573Z,96.00
2023-05-24T17:44:32.051Z,98.16
2023-05-24T17:47:07.367Z,97.62
2023-05-24T17:49:45.733Z,97.32
2023-05-24T17:52:22.913Z,99.76
2023-05-24T17:54:56.485Z,100.00
2023-05-24T17:57:29.092Z,100.00
2023-05-24T17:59:59.851Z,100.00
2023-05-24T18:02:30.933Z,100.00
2023-05-24T18:05:02.724Z,100.00
2023-05-24T18:07:33.776Z,100.00
2023-05-24T18:10:08.453Z,100.00
2023-05-24T18:13:00.783Z,100.00
2023-05-24T18:15:35.950Z,100.00
2023-05-24T18:18:12.780Z,100.00
2023-05-24T18:20:45.280Z,100.00
2023-05-24T18:23:16.537Z,100.00
2023-05-24T18:26:01.443Z,100.00
2023-05-24T18:28:24.275Z,100.00
2023-05-24T18:34:28.740Z,100.00
2023-05-24T18:37:25.979Z,100.00
2023-05-24T18:39:58.155Z,100.00
2023-05-24T18:42:44.446Z,100.00
2023-05-24T18:45:15.012Z,100.00
2023-05-24T18:47:49.122Z,100.00
2023-05-24T18:50:22.068Z,100.00
2023-05-24T18:52:53.744Z,100.00
2023-05-24T18:55:31.837Z,100.00
2023-05-24T18:58:10.497Z,100.00
2023-05-24T19:00:45.738Z,100.00
2023-05-24T19:03:19.063Z,100.00
2023-05-24T19:05:50.167Z,100.00
2023-05-24T19:08:28.191Z,100.00
2023-05-24T19:11:12.633Z,100.00
2023-05-24T19:16:48.281Z,100.00
2023-05-24T19:17:18.586Z,100.00
2023-05-24T19:19:23.944Z,100.00
2023-05-24T19:22:48.603Z,100.00
2023-05-24T19:24:58.447Z,100.00
2023-05-24T19:27:29.327Z,100.00
2023-05-24T19:30:00.011Z,100.00
2023-05-24T19:32:51.416Z,100.00
2023-05-24T19:35:12.313Z,100.00
2023-05-24T19:37:45.083Z,100.00
2023-05-24T19:40:15.676Z,100.00
2023-05-24T19:42:46.773Z,100.00
2023-05-24T19:45:21.082Z,100.00
2023-05-24T19:47:52.066Z,100.00
2023-05-24T19:50:23.898Z,100.00
2023-05-24T19:53:05.181Z,100.00
2023-05-24T19:55:44.621Z,100.00
2023-05-24T19:58:15.408Z,100.00
2023-05-24T20:00:46.010Z,100.00
2023-05-24T20:03:16.436Z,100.00
2023-05-24T20:05:48.516Z,100.00
2023-05-24T20:08:27.191Z,100.00
2023-05-24T20:10:57.993Z,100.00
2023-05-24T20:13:28.424Z,100.00
2023-05-24T20:15:58.895Z,100.00
2023-05-24T20:18:30.523Z,100.00
2023-05-24T20:21:02.790Z,100.00
2023-05-24T20:23:33.611Z,100.00
2023-05-24T20:26:05.131Z,100.00
2023-05-24T20:28:40.236Z,100.00
2023-05-24T20:31:13.886Z,100.00
2023-05-24T20:36:53.930Z,100.00
2023-05-24T20:39:27.825Z,100.00
2023-05-24T20:42:06.101Z,100.00
2023-05-24T20:44:34.994Z,100.00
2023-05-24T20:50:11.412Z,100.00
2023-05-24T20:55:28.983Z,100.00
2023-05-24T20:58:07.450Z,100.00
2023-05-24T21:00:40.106Z,100.00
2023-05-24T21:03:13.883Z,100.00
2023-05-24T21:05:56.693Z,100.00
2023-05-24T21:08:28.682Z,100.00
2023-05-24T21:10:59.617Z,100.00
2023-05-24T21:13:33.181Z,100.00
2023-05-24T21:18:55.266Z,100.00
2023-05-24T21:21:28.330Z,100.00
2023-05-24T21:24:08.868Z,100.00
2023-05-24T21:26:41.039Z,100.00
2023-05-24T21:29:17.297Z,100.00
2023-05-24T21:31:52.552Z,100.00
2023-05-24T21:34:45.373Z,100.00
2023-05-24T21:37:16.252Z,100.00
2023-05-24T21:39:51.680Z,100.00
2023-05-24T21:42:26.777Z,100.00
2023-05-24T21:44:57.454Z,100.00
2023-05-24T21:47:30.421Z,100.00
2023-05-24T21:50:02.248Z,100.00
2023-05-24T21:52:47.343Z,100.00
2023-05-24T21:55:17.710Z,100.00
2023-05-24T21:57:48.503Z,100.00
2023-05-24T22:00:24.823Z,100.00
2023-05-24T22:02:56.230Z,100.00
2023-05-24T22:05:28.314Z,100.00
2023-05-24T22:08:03.331Z,100.00
2023-05-24T22:10:35.079Z,100.00
2023-05-24T22:13:07.556Z,100.00
2023-05-24T22:15:38.474Z,100.00
2023-05-24T22:18:09.438Z,100.00
2023-05-24T22:20:41.362Z,100.00
2023-05-24T22:23:16.282Z,100.00
2023-05-24T22:25:46.880Z,100.00
2023-05-24T22:28:17.155Z,100.00
2023-05-24T22:30:50.051Z,100.00
2023-05-24T22:33:20.778Z,100.00
2023-05-24T22:35:51.289Z,100.00
2023-05-24T22:38:21.686Z,100.00
2023-05-24T22:40:52.021Z,100.00
2023-05-24T22:43:22.553Z,100.00
2023-05-24T22:45:52.977Z,100.00
2023-05-24T22:48:23.414Z,100.00
2023-05-24T22:50:54.516Z,100.00
2023-05-24T22:53:25.432Z,100.00
2023-05-24T22:55:55.845Z,100.00
2023-05-24T22:58:26.403Z,100.00
2023-05-24T23:00:56.715Z,100.00
2023-05-24T23:03:26.978Z,100.00
2023-05-24T23:05:57.375Z,100.00
2023-05-24T23:08:27.907Z,100.00
2023-05-24T23:10:58.801Z,100.00
2023-05-24T23:13:29.253Z,100.00
2023-05-24T23:15:59.656Z,100.00
2023-05-24T23:18:31.813Z,100.00
2023-05-24T23:21:02.054Z,100.00
2023-05-24T23:23:32.659Z,100.00
2023-05-24T23:26:03.062Z,100.00
2023-05-24T23:28:33.677Z,100.00
2023-05-24T23:31:04.052Z,100.00
2023-05-24T23:33:34.490Z,100.00
2023-05-24T23:36:05.264Z,100.00
2023-05-24T23:38:36.370Z,100.00
2023-05-24T23:41:06.704Z,100.00
2023-05-24T23:43:36.845Z,100.00
2023-05-24T23:46:07.198Z,100.00
2023-05-24T23:48:39.179Z,100.00
2023-05-24T23:51:09.511Z,100.00
2023-05-24T23:53:39.970Z,100.00
2023-05-24T23:56:10.392Z,100.00
2023-05-24T23:58:41.324Z,100.00
